createdAt,value
2022-10-19T00:00:02.330Z,0.00
2022-10-19T00:01:02.270Z,0.00
2022-10-19T00:02:05.328Z,0.00
2022-10-19T00:03:05.271Z,0.00
2022-10-19T00:04:04.857Z,0.00
2022-10-19T00:05:03.271Z,0.00
2022-10-19T00:06:02.222Z,0.00
2022-10-19T00:07:02.222Z,0.00
2022-10-19T00:08:02.176Z,0.00
2022-10-19T00:09:02.172Z,0.00
2022-10-19T00:10:02.161Z,0.00
2022-10-19T00:11:02.223Z,0.00
2022-10-19T00:12:02.123Z,0.00
2022-10-19T00:13:02.109Z,0.00
2022-10-19T00:14:02.091Z,0.00
2022-10-19T00:15:02.062Z,0.00
2022-10-19T00:16:02.075Z,0.00
2022-10-19T00:17:02.115Z,0.00
2022-10-19T00:18:02.063Z,0.00
2022-10-19T00:19:02.017Z,0.00
2022-10-19T00:20:02.037Z,0.00
2022-10-19T00:21:02.017Z,0.00
2022-10-19T00:22:06.313Z,0.00
2022-10-19T00:23:05.058Z,0.00
2022-10-19T00:24:01.950Z,0.00
2022-10-19T00:25:01.951Z,0.00
2022-10-19T00:26:01.921Z,0.00
2022-10-19T00:27:01.908Z,0.00
2022-10-19T00:28:01.902Z,0.00
2022-10-19T00:29:02.014Z,0.00
2022-10-19T00:30:01.879Z,0.00
2022-10-19T00:31:01.862Z,0.00
2022-10-19T00:32:01.860Z,0.00
2022-10-19T00:33:01.841Z,0.00
2022-10-19T00:34:01.810Z,0.00
2022-10-19T00:35:01.851Z,0.00
2022-10-19T00:36:01.801Z,0.00
2022-10-19T00:37:01.797Z,0.00
2022-10-19T00:38:01.783Z,0.00
2022-10-19T00:39:01.742Z,0.00
2022-10-19T00:40:01.790Z,0.00
2022-10-19T00:41:01.771Z,0.00
2022-10-19T00:42:04.694Z,0.00
2022-10-19T00:43:04.703Z,0.00
2022-10-19T00:44:01.704Z,0.00
2022-10-19T00:45:01.674Z,0.00
2022-10-19T00:46:01.656Z,0.00
2022-10-19T00:47:01.725Z,0.00
2022-10-19T00:48:01.615Z,0.00
2022-10-19T00:49:02.157Z,0.00
2022-10-19T00:50:01.591Z,0.00
2022-10-19T00:51:01.586Z,0.00
2022-10-19T00:52:01.585Z,0.00
2022-10-19T00:53:01.628Z,0.00
2022-10-19T00:54:01.569Z,0.00
2022-10-19T00:55:01.528Z,0.00
2022-10-19T00:56:01.534Z,0.00
2022-10-19T00:57:01.508Z,0.00
2022-10-19T00:58:01.479Z,0.00
2022-10-19T00:59:01.535Z,0.00
2022-10-19T01:00:01.479Z,0.00
2022-10-19T01:01:01.512Z,0.00
2022-10-19T01:02:04.442Z,0.00
2022-10-19T01:03:04.432Z,0.00
2022-10-19T01:04:01.420Z,0.00
2022-10-19T01:05:01.459Z,0.00
2022-10-19T01:06:01.380Z,0.00
2022-10-19T01:07:01.363Z,0.00
2022-10-19T01:08:01.362Z,0.00
2022-10-19T01:09:01.339Z,0.00
2022-10-19T01:10:01.326Z,0.00
2022-10-19T01:11:01.351Z,0.00
2022-10-19T01:12:01.302Z,0.00
2022-10-19T01:13:01.273Z,0.00
2022-10-19T01:14:01.294Z,0.00
2022-10-19T01:15:01.261Z,0.00
2022-10-19T01:16:01.274Z,0.00
2022-10-19T01:17:01.234Z,0.00
2022-10-19T01:18:01.216Z,0.00
2022-10-19T01:19:01.205Z,0.00
2022-10-19T01:20:01.195Z,0.00
2022-10-19T01:21:01.225Z,0.00
2022-10-19T01:22:04.185Z,0.00
2022-10-19T01:23:04.171Z,0.00
2022-10-19T01:24:01.151Z,0.00
2022-10-19T01:25:01.127Z,0.00
2022-10-19T01:26:01.137Z,0.00
2022-10-19T01:27:01.157Z,0.00
2022-10-19T01:28:01.106Z,0.00
2022-10-19T01:29:01.151Z,0.00
2022-10-19T01:30:01.070Z,0.00
2022-10-19T01:31:01.045Z,0.00
2022-10-19T01:32:01.026Z,0.00
2022-10-19T01:33:01.039Z,0.00
2022-10-19T01:34:01.002Z,0.00
2022-10-19T01:35:00.999Z,0.00
2022-10-19T01:36:00.990Z,0.00
2022-10-19T01:37:00.978Z,0.00
2022-10-19T01:38:00.981Z,0.00
2022-10-19T01:39:00.932Z,0.00
2022-10-19T01:40:00.921Z,0.00
2022-10-19T01:41:00.902Z,0.00
2022-10-19T01:42:03.893Z,0.00
2022-10-19T01:43:03.926Z,0.00
2022-10-19T01:44:00.862Z,0.00
2022-10-19T01:45:00.873Z,0.00
2022-10-19T01:46:00.853Z,0.00
2022-10-19T01:47:00.825Z,0.00
2022-10-19T01:48:00.958Z,0.00
2022-10-19T01:49:00.862Z,0.00
2022-10-19T01:50:00.804Z,0.00
2022-10-19T01:51:00.788Z,0.00
2022-10-19T01:52:00.784Z,0.00
2022-10-19T01:53:00.755Z,0.00
2022-10-19T01:54:00.726Z,0.00
2022-10-19T01:55:00.766Z,0.00
2022-10-19T01:56:00.719Z,0.00
2022-10-19T01:57:00.687Z,0.00
2022-10-19T01:58:00.706Z,0.00
2022-10-19T01:59:00.658Z,0.00
2022-10-19T02:00:00.647Z,0.00
2022-10-19T02:01:00.864Z,0.00
2022-10-19T02:02:03.623Z,0.00
2022-10-19T02:03:03.639Z,0.00
2022-10-19T02:04:00.598Z,0.00
2022-10-19T02:05:00.628Z,0.00
2022-10-19T02:06:00.579Z,0.00
2022-10-19T02:07:00.550Z,0.00
2022-10-19T02:08:00.541Z,0.00
2022-10-19T02:09:00.542Z,0.00
2022-10-19T02:10:00.575Z,0.00
2022-10-19T02:11:00.538Z,0.00
2022-10-19T02:12:00.482Z,0.00
2022-10-19T02:13:00.484Z,0.00
2022-10-19T02:14:00.452Z,0.00
2022-10-19T02:15:00.452Z,0.00
2022-10-19T02:16:00.463Z,0.00
2022-10-19T02:17:00.443Z,0.00
2022-10-19T02:18:00.406Z,0.00
2022-10-19T02:19:00.394Z,0.00
2022-10-19T02:20:00.384Z,0.00
2022-10-19T02:21:00.394Z,0.00
2022-10-19T02:22:03.374Z,0.00
2022-10-19T02:23:03.344Z,0.00
2022-10-19T02:24:00.332Z,0.00
2022-10-19T02:25:00.319Z,0.00
2022-10-19T02:26:00.294Z,0.00
2022-10-19T02:27:00.324Z,0.00
2022-10-19T02:28:00.266Z,0.00
2022-10-19T02:29:00.247Z,0.00
2022-10-19T02:30:00.276Z,0.00
2022-10-19T02:31:00.290Z,0.00
2022-10-19T02:32:00.218Z,0.00
2022-10-19T02:33:00.217Z,0.00
2022-10-19T02:34:00.199Z,0.00
2022-10-19T02:35:00.170Z,0.00
2022-10-19T02:36:00.149Z,0.00
2022-10-19T02:37:00.208Z,0.00
2022-10-19T02:38:00.130Z,0.00
2022-10-19T02:39:00.137Z,0.00
2022-10-19T02:40:00.111Z,0.00
2022-10-19T02:41:00.098Z,0.00
2022-10-19T02:42:03.111Z,0.00
2022-10-19T02:43:03.071Z,0.00
2022-10-19T02:44:00.041Z,0.00
2022-10-19T02:45:00.038Z,0.00
2022-10-19T02:46:00.021Z,0.00
2022-10-19T02:47:00.028Z,0.00
2022-10-19T02:47:59.992Z,0.00
2022-10-19T02:48:59.984Z,0.00
2022-10-19T02:49:59.967Z,0.00
2022-10-19T02:50:59.952Z,0.00
2022-10-19T02:51:59.983Z,0.00
2022-10-19T02:52:59.944Z,0.00
2022-10-19T02:54:02.635Z,0.00
2022-10-19T02:55:00.895Z,0.00
2022-10-19T02:55:59.887Z,0.00
2022-10-19T02:56:59.856Z,0.00
2022-10-19T02:57:59.876Z,0.00
2022-10-19T02:58:59.826Z,0.00
2022-10-19T02:59:59.826Z,0.00
2022-10-19T03:00:59.834Z,0.00
2022-10-19T03:02:02.876Z,0.00
2022-10-19T03:03:02.805Z,0.00
2022-10-19T03:03:59.779Z,0.00
2022-10-19T03:04:59.748Z,0.00
2022-10-19T03:05:59.747Z,0.00
2022-10-19T03:06:59.718Z,0.00
2022-10-19T03:07:59.729Z,0.00
2022-10-19T03:08:59.709Z,0.00
2022-10-19T03:09:59.679Z,0.00
2022-10-19T03:10:59.660Z,0.00
2022-10-19T03:11:59.710Z,0.00
2022-10-19T03:12:59.641Z,0.00
2022-10-19T03:13:59.628Z,0.00
2022-10-19T03:14:59.630Z,0.00
2022-10-19T03:15:59.609Z,0.00
2022-10-19T03:16:59.591Z,0.00
2022-10-19T03:17:59.621Z,0.00
2022-10-19T03:18:59.553Z,0.00
2022-10-19T03:19:59.552Z,0.00
2022-10-19T03:20:59.522Z,0.00
2022-10-19T03:22:02.523Z,0.00
2022-10-19T03:23:02.555Z,0.00
2022-10-19T03:23:59.494Z,0.00
2022-10-19T03:24:59.457Z,0.00
2022-10-19T03:25:59.463Z,0.00
2022-10-19T03:26:59.424Z,0.00
2022-10-19T03:27:59.415Z,0.00
2022-10-19T03:28:59.499Z,0.00
2022-10-19T03:29:59.396Z,0.00
2022-10-19T03:30:59.375Z,0.00
2022-10-19T03:31:59.367Z,0.00
2022-10-19T03:32:59.346Z,0.00
2022-10-19T03:33:59.346Z,0.00
2022-10-19T03:34:59.357Z,0.00
2022-10-19T03:35:59.377Z,0.00
2022-10-19T03:36:59.365Z,0.00
2022-10-19T03:37:59.278Z,0.00
2022-10-19T03:38:59.275Z,0.00
2022-10-19T03:39:59.260Z,0.00
2022-10-19T03:40:59.260Z,0.00
2022-10-19T03:42:02.278Z,0.00
2022-10-19T03:43:02.248Z,0.00
2022-10-19T03:44:59.189Z,0.00
2022-10-19T03:45:59.179Z,0.00
2022-10-19T03:46:59.199Z,0.00
2022-10-19T03:47:59.221Z,0.00
2022-10-19T03:48:59.151Z,0.00
2022-10-19T03:49:59.123Z,0.00
2022-10-19T03:50:59.102Z,0.00
2022-10-19T03:51:59.093Z,0.00
2022-10-19T03:52:59.094Z,0.00
2022-10-19T03:53:59.192Z,0.00
2022-10-19T03:54:59.062Z,0.00
2022-10-19T03:55:59.064Z,0.00
2022-10-19T03:56:59.034Z,0.00
2022-10-19T03:57:59.010Z,0.00
2022-10-19T03:58:58.995Z,0.00
2022-10-19T03:59:59.036Z,0.00
2022-10-19T04:00:58.991Z,0.00
2022-10-19T04:02:01.956Z,0.00
2022-10-19T04:03:01.962Z,0.00
2022-10-19T04:03:58.927Z,0.00
2022-10-19T04:04:58.906Z,0.00
2022-10-19T04:05:58.927Z,0.00
2022-10-19T04:06:58.926Z,0.00
2022-10-19T04:07:58.886Z,0.00
2022-10-19T04:08:58.867Z,0.00
2022-10-19T04:09:58.849Z,0.00
2022-10-19T04:10:58.849Z,0.00
2022-10-19T04:11:58.849Z,0.00
2022-10-19T04:12:58.807Z,0.00
2022-10-19T04:13:58.884Z,0.00
2022-10-19T04:14:58.819Z,0.00
2022-10-19T04:15:58.919Z,0.00
2022-10-19T04:16:58.741Z,0.00
2022-10-19T04:17:58.731Z,0.00
2022-10-19T04:18:58.712Z,0.00
2022-10-19T04:19:58.700Z,0.00
2022-10-19T04:20:58.702Z,0.00
2022-10-19T04:22:01.712Z,0.00
2022-10-19T04:23:01.728Z,0.00
2022-10-19T04:23:58.678Z,0.00
2022-10-19T04:24:58.653Z,0.00
2022-10-19T04:25:58.642Z,0.00
2022-10-19T04:26:58.613Z,0.00
2022-10-19T04:27:58.658Z,0.00
2022-10-19T04:28:58.748Z,0.00
2022-10-19T04:29:58.595Z,0.00
2022-10-19T04:30:58.564Z,0.00
2022-10-19T04:31:58.546Z,0.00
2022-10-19T04:32:58.541Z,0.00
2022-10-19T04:33:58.566Z,0.00
2022-10-19T04:34:58.508Z,0.00
2022-10-19T04:35:58.496Z,0.00
2022-10-19T04:36:58.477Z,0.00
2022-10-19T04:37:58.476Z,0.00
2022-10-19T04:38:58.457Z,0.00
2022-10-19T04:39:58.470Z,0.00
2022-10-19T04:40:58.437Z,0.00
2022-10-19T04:42:01.417Z,0.00
2022-10-19T04:43:01.482Z,0.00
2022-10-19T04:43:58.386Z,0.00
2022-10-19T04:44:58.369Z,0.00
2022-10-19T04:45:58.359Z,0.00
2022-10-19T04:46:58.358Z,0.00
2022-10-19T04:47:58.350Z,0.00
2022-10-19T04:48:58.401Z,0.00
2022-10-19T04:49:58.299Z,0.00
2022-10-19T04:50:58.281Z,0.00
2022-10-19T04:51:58.280Z,0.00
2022-10-19T04:52:58.264Z,0.00
2022-10-19T04:53:59.622Z,0.00
2022-10-19T04:54:58.291Z,0.00
2022-10-19T04:55:58.220Z,0.00
2022-10-19T04:56:58.212Z,0.00
2022-10-19T04:57:58.195Z,0.00
2022-10-19T04:58:58.176Z,0.00
2022-10-19T04:59:58.170Z,0.00
2022-10-19T05:00:58.275Z,0.00
2022-10-19T05:02:01.134Z,0.00
2022-10-19T05:03:01.143Z,0.00
2022-10-19T05:03:58.149Z,0.00
2022-10-19T05:04:58.104Z,0.00
2022-10-19T05:05:58.085Z,0.00
2022-10-19T05:06:58.115Z,0.00
2022-10-19T05:07:58.055Z,0.00
2022-10-19T05:08:58.055Z,0.00
2022-10-19T05:09:58.024Z,0.00
2022-10-19T05:10:58.006Z,0.00
2022-10-19T05:11:58.034Z,0.00
2022-10-19T05:12:58.044Z,0.00
2022-10-19T05:13:57.977Z,0.00
2022-10-19T05:14:57.956Z,0.00
2022-10-19T05:15:57.947Z,0.00
2022-10-19T05:16:57.927Z,0.00
2022-10-19T05:17:57.910Z,0.00
2022-10-19T05:18:58.000Z,0.00
2022-10-19T05:19:57.899Z,0.00
2022-10-19T05:20:57.869Z,0.00
2022-10-19T05:22:00.842Z,0.00
2022-10-19T05:23:04.759Z,0.00
2022-10-19T05:23:58.877Z,0.00
2022-10-19T05:24:58.275Z,0.00
2022-10-19T05:25:57.811Z,0.00
2022-10-19T05:26:57.792Z,0.00
2022-10-19T05:27:57.785Z,0.00
2022-10-19T05:28:57.853Z,0.00
2022-10-19T05:29:57.770Z,4.00
2022-10-19T05:30:57.775Z,4.00
2022-10-19T05:31:57.742Z,0.00
2022-10-19T05:32:57.713Z,4.00
2022-10-19T05:33:57.778Z,0.00
2022-10-19T05:34:57.727Z,4.00
2022-10-19T05:35:57.677Z,4.00
2022-10-19T05:36:57.727Z,4.00
2022-10-19T05:37:57.635Z,4.00
2022-10-19T05:38:57.628Z,4.00
2022-10-19T05:39:57.597Z,8.00
2022-10-19T05:40:57.600Z,8.00
2022-10-19T05:42:00.628Z,8.00
2022-10-19T05:43:00.577Z,8.00
2022-10-19T05:43:57.620Z,12.00
2022-10-19T05:44:57.541Z,12.00
2022-10-19T05:45:57.526Z,16.00
2022-10-19T05:46:57.558Z,20.00
2022-10-19T05:47:57.504Z,20.00
2022-10-19T05:48:57.486Z,28.00
2022-10-19T05:49:57.503Z,28.00
2022-10-19T05:50:57.470Z,32.00
2022-10-19T05:51:57.438Z,36.00
2022-10-19T05:52:57.489Z,44.00
2022-10-19T05:53:57.417Z,48.00
2022-10-19T05:54:57.420Z,56.00
2022-10-19T05:55:57.380Z,64.00
2022-10-19T05:57:04.861Z,76.00
2022-10-19T05:57:57.330Z,84.00
2022-10-19T05:58:57.341Z,88.00
2022-10-19T05:59:57.299Z,96.00
2022-10-19T06:00:57.289Z,100.00
2022-10-19T06:02:00.323Z,108.00
2022-10-19T06:03:00.271Z,116.00
2022-10-19T06:03:57.289Z,124.00
2022-10-19T06:04:57.234Z,132.00
2022-10-19T06:05:57.220Z,140.00
2022-10-19T06:06:57.215Z,144.00
2022-10-19T06:07:57.192Z,152.00
2022-10-19T06:08:57.182Z,156.00
2022-10-19T06:09:57.191Z,160.00
2022-10-19T06:10:57.155Z,164.00
2022-10-19T06:11:57.134Z,168.00
2022-10-19T06:12:57.123Z,172.00
2022-10-19T06:13:57.112Z,184.00
2022-10-19T06:14:57.155Z,192.00
2022-10-19T06:15:57.083Z,200.00
2022-10-19T06:16:57.074Z,204.00
2022-10-19T06:17:57.055Z,220.00
2022-10-19T06:18:57.045Z,236.00
2022-10-19T06:19:57.027Z,248.00
2022-10-19T06:20:57.044Z,264.00
2022-10-19T06:22:00.007Z,276.00
2022-10-19T06:23:00.005Z,292.00
2022-10-19T06:23:57.004Z,308.00
2022-10-19T06:24:56.968Z,324.00
2022-10-19T06:25:56.945Z,328.00
2022-10-19T06:26:56.998Z,336.00
2022-10-19T06:27:56.933Z,344.00
2022-10-19T06:28:56.907Z,352.00
2022-10-19T06:29:56.888Z,356.00
2022-10-19T06:30:56.911Z,368.00
2022-10-19T06:31:56.859Z,372.00
2022-10-19T06:32:56.987Z,380.00
2022-10-19T06:33:56.868Z,384.00
2022-10-19T06:34:56.851Z,388.00
2022-10-19T06:35:56.808Z,392.00
2022-10-19T06:36:56.801Z,400.00
2022-10-19T06:37:56.781Z,400.00
2022-10-19T06:38:56.820Z,408.00
2022-10-19T06:39:56.775Z,412.00
2022-10-19T06:40:56.742Z,424.00
2022-10-19T06:41:59.723Z,432.00
2022-10-19T06:42:59.731Z,452.00
2022-10-19T06:43:56.705Z,468.00
2022-10-19T06:44:56.740Z,484.00
2022-10-19T06:45:56.664Z,492.00
2022-10-19T06:46:56.663Z,504.00
2022-10-19T06:47:56.634Z,516.00
2022-10-19T06:48:56.624Z,528.00
2022-10-19T06:49:56.612Z,536.00
2022-10-19T06:50:56.645Z,540.00
2022-10-19T06:51:56.589Z,556.00
2022-10-19T06:52:56.577Z,576.00
2022-10-19T06:53:57.490Z,596.00
2022-10-19T06:54:56.545Z,624.00
2022-10-19T06:55:56.526Z,644.00
2022-10-19T06:56:56.557Z,668.00
2022-10-19T06:57:56.498Z,684.00
2022-10-19T06:58:56.486Z,708.00
2022-10-19T06:59:56.476Z,732.00
2022-10-19T07:00:56.503Z,760.00
2022-10-19T07:01:59.478Z,792.00
2022-10-19T07:02:59.442Z,812.00
2022-10-19T07:03:56.418Z,828.00
2022-10-19T07:04:56.409Z,840.00
2022-10-19T07:05:56.388Z,880.00
2022-10-19T07:06:56.379Z,924.00
2022-10-19T07:07:56.452Z,956.00
2022-10-19T07:08:56.350Z,968.00
2022-10-19T07:09:56.330Z,976.00
2022-10-19T07:10:56.329Z,984.00
2022-10-19T07:11:56.300Z,964.00
2022-10-19T07:12:56.373Z,976.00
2022-10-19T07:13:56.320Z,988.00
2022-10-19T07:14:56.270Z,1000.00
2022-10-19T07:15:56.250Z,1020.00
2022-10-19T07:16:56.243Z,1028.00
2022-10-19T07:17:56.222Z,1032.00
2022-10-19T07:18:56.214Z,1032.00
2022-10-19T07:19:56.232Z,1028.00
2022-10-19T07:20:56.184Z,1024.00
2022-10-19T07:21:59.165Z,1016.00
2022-10-19T07:22:59.171Z,1020.00
2022-10-19T07:23:56.146Z,1024.00
2022-10-19T07:24:56.134Z,972.00
2022-10-19T07:25:56.175Z,968.00
2022-10-19T07:26:56.105Z,1056.00
2022-10-19T07:27:56.086Z,1140.00
2022-10-19T07:28:56.076Z,1164.00
2022-10-19T07:29:56.066Z,1160.00
2022-10-19T07:30:56.046Z,1156.00
2022-10-19T07:31:56.086Z,1152.00
2022-10-19T07:32:56.026Z,1164.00
2022-10-19T07:33:56.010Z,1180.00
2022-10-19T07:34:56.000Z,1192.00
2022-10-19T07:35:55.978Z,1200.00
2022-10-19T07:36:55.968Z,1140.00
2022-10-19T07:37:56.017Z,1220.00
2022-10-19T07:38:55.939Z,1248.00
2022-10-19T07:39:55.931Z,1268.00
2022-10-19T07:40:55.911Z,1296.00
2022-10-19T07:41:58.899Z,1320.00
2022-10-19T07:42:58.940Z,1376.00
2022-10-19T07:43:55.881Z,1428.00
2022-10-19T07:44:55.860Z,1464.00
2022-10-19T07:45:55.850Z,1468.00
2022-10-19T07:46:55.838Z,1524.00
2022-10-19T07:47:55.812Z,1612.00
2022-10-19T07:48:55.842Z,1604.00
2022-10-19T07:49:55.796Z,1584.00
2022-10-19T07:50:55.780Z,1556.00
2022-10-19T07:51:55.762Z,1532.00
2022-10-19T07:52:55.756Z,1520.00
2022-10-19T07:53:55.734Z,1488.00
2022-10-19T07:54:55.796Z,1468.00
2022-10-19T07:55:55.716Z,1456.00
2022-10-19T07:56:55.697Z,1448.00
2022-10-19T07:57:55.686Z,1452.00
2022-10-19T07:58:55.678Z,1460.00
2022-10-19T07:59:55.672Z,1496.00
2022-10-19T08:00:55.697Z,1552.00
2022-10-19T08:01:58.651Z,1620.00
2022-10-19T08:03:43.148Z,1660.00
2022-10-19T08:04:48.691Z,1692.00
2022-10-19T08:05:01.159Z,1716.00
2022-10-19T08:05:56.606Z,1744.00
2022-10-19T08:06:55.598Z,1800.00
2022-10-19T08:07:55.549Z,1864.00
2022-10-19T08:08:55.579Z,1932.00
2022-10-19T08:09:55.653Z,1980.00
2022-10-19T08:10:55.509Z,1984.00
2022-10-19T08:11:55.548Z,2028.00
2022-10-19T08:12:55.479Z,2124.00
2022-10-19T08:13:55.580Z,2168.00
2022-10-19T08:14:55.460Z,2196.00
2022-10-19T08:15:55.440Z,2220.00
2022-10-19T08:16:55.431Z,2220.00
2022-10-19T08:17:55.443Z,2280.00
2022-10-19T08:18:55.402Z,2372.00
2022-10-19T08:19:55.388Z,2476.00
2022-10-19T08:20:55.373Z,2520.00
2022-10-19T08:21:58.363Z,2556.00
2022-10-19T08:22:59.091Z,2604.00
2022-10-19T08:23:55.333Z,2708.00
2022-10-19T08:24:55.325Z,2788.00
2022-10-19T08:25:55.304Z,2820.00
2022-10-19T08:26:55.295Z,2840.00
2022-10-19T08:27:55.324Z,2868.00
2022-10-19T08:28:55.276Z,2912.00
2022-10-19T08:29:55.254Z,2960.00
2022-10-19T08:30:55.244Z,3000.00
2022-10-19T08:31:55.225Z,3044.00
2022-10-19T08:32:55.216Z,3048.00
2022-10-19T08:33:55.227Z,3048.00
2022-10-19T08:34:55.186Z,3060.00
2022-10-19T08:35:55.177Z,3096.00
2022-10-19T08:36:55.158Z,3136.00
2022-10-19T08:37:57.255Z,3172.00
2022-10-19T08:38:55.128Z,3156.00
2022-10-19T08:39:55.120Z,3084.00
2022-10-19T08:40:55.108Z,3068.00
2022-10-19T08:41:58.093Z,3000.00
2022-10-19T08:42:58.162Z,3060.00
2022-10-19T08:43:55.070Z,3072.00
2022-10-19T08:44:55.048Z,3028.00
2022-10-19T08:45:55.032Z,2856.00
2022-10-19T08:46:55.021Z,2788.00
2022-10-19T08:47:55.011Z,2784.00
2022-10-19T08:48:55.022Z,2916.00
2022-10-19T08:49:54.981Z,3024.00
2022-10-19T08:50:55.017Z,3052.00
2022-10-19T08:51:54.960Z,3096.00
2022-10-19T08:52:54.942Z,3144.00
2022-10-19T08:53:54.933Z,2788.00
2022-10-19T08:54:54.948Z,2852.00
2022-10-19T08:55:54.901Z,3264.00
2022-10-19T08:56:54.887Z,3332.00
2022-10-19T08:57:54.875Z,3600.00
2022-10-19T08:58:54.855Z,3696.00
2022-10-19T08:59:54.845Z,3628.00
2022-10-19T09:00:54.861Z,3988.00
2022-10-19T09:01:57.817Z,3840.00
2022-10-19T09:02:57.814Z,4032.00
2022-10-19T09:03:56.199Z,3856.00
2022-10-19T09:04:54.797Z,3580.00
2022-10-19T09:05:54.817Z,3524.00
2022-10-19T09:06:54.809Z,3308.00
2022-10-19T09:07:54.741Z,3576.00
2022-10-19T09:08:54.772Z,3516.00
2022-10-19T09:09:54.713Z,3636.00
2022-10-19T09:10:54.692Z,3636.00
2022-10-19T09:11:54.779Z,3600.00
2022-10-19T09:12:57.765Z,3360.00
2022-10-19T09:14:04.621Z,3604.00
2022-10-19T09:14:55.642Z,3188.00
2022-10-19T09:15:54.680Z,3120.00
2022-10-19T09:16:54.772Z,3192.00
2022-10-19T09:17:54.709Z,3200.00
2022-10-19T09:19:54.612Z,2868.00
2022-10-19T09:20:54.574Z,3440.00
2022-10-19T09:21:57.542Z,3584.00
2022-10-19T09:22:57.565Z,3436.00
2022-10-19T09:23:54.714Z,3152.00
2022-10-19T09:24:54.506Z,2484.00
2022-10-19T09:25:54.514Z,2456.00
2022-10-19T09:26:54.475Z,2500.00
2022-10-19T09:27:54.504Z,2820.00
2022-10-19T09:28:54.582Z,2880.00
2022-10-19T09:29:54.436Z,3268.00
2022-10-19T09:30:54.416Z,3028.00
2022-10-19T09:31:54.435Z,3296.00
2022-10-19T09:32:54.418Z,3348.00
2022-10-19T09:33:54.377Z,3192.00
2022-10-19T09:34:54.365Z,3364.00
2022-10-19T09:35:54.350Z,3440.00
2022-10-19T09:36:54.339Z,3472.00
2022-10-19T09:37:54.369Z,3528.00
2022-10-19T09:38:54.308Z,3604.00
2022-10-19T09:39:55.568Z,3612.00
2022-10-19T09:40:54.287Z,3804.00
2022-10-19T09:41:57.267Z,3948.00
2022-10-19T09:42:57.290Z,4092.00
2022-10-19T09:43:54.240Z,4292.00
2022-10-19T09:44:54.231Z,4252.00
2022-10-19T09:45:54.210Z,3920.00
2022-10-19T09:46:54.242Z,4136.00
2022-10-19T09:47:54.205Z,4212.00
2022-10-19T09:48:54.173Z,4524.00
2022-10-19T09:49:54.152Z,4664.00
2022-10-19T09:50:54.142Z,4688.00
2022-10-19T09:51:54.123Z,4656.00
2022-10-19T09:52:54.135Z,4672.00
2022-10-19T09:53:54.134Z,4712.00
2022-10-19T09:54:54.084Z,4732.00
2022-10-19T09:55:54.081Z,4676.00
2022-10-19T09:56:54.056Z,4472.00
2022-10-19T09:57:54.072Z,4060.00
2022-10-19T09:58:54.025Z,4108.00
2022-10-19T09:59:54.015Z,3532.00
2022-10-19T10:00:54.007Z,3436.00
2022-10-19T10:01:57.175Z,3340.00
2022-10-19T10:02:57.018Z,3320.00
2022-10-19T10:03:56.000Z,3380.00
2022-10-19T10:04:53.977Z,3384.00
2022-10-19T10:05:53.936Z,3344.00
2022-10-19T10:06:53.918Z,3224.00
2022-10-19T10:07:53.912Z,3124.00
2022-10-19T10:08:53.915Z,3460.00
2022-10-19T10:09:53.910Z,3068.00
2022-10-19T10:10:53.890Z,3132.00
2022-10-19T10:12:53.841Z,3116.00
2022-10-19T10:13:53.831Z,3032.00
2022-10-19T10:14:53.811Z,2936.00
2022-10-19T10:15:53.834Z,2924.00
2022-10-19T10:16:53.789Z,2964.00
2022-10-19T10:17:53.781Z,3028.00
2022-10-19T10:18:53.760Z,3060.00
2022-10-19T10:19:53.754Z,3076.00
2022-10-19T10:20:53.809Z,3088.00
2022-10-19T10:21:56.733Z,3124.00
2022-10-19T10:22:56.727Z,4028.00
2022-10-19T10:23:53.707Z,3932.00
2022-10-19T10:24:53.684Z,2924.00
2022-10-19T10:25:53.675Z,2836.00
2022-10-19T10:26:53.687Z,2828.00
2022-10-19T10:27:53.645Z,2900.00
2022-10-19T10:28:55.617Z,2968.00
2022-10-19T10:30:53.675Z,3340.00
2022-10-19T10:31:53.602Z,3884.00
2022-10-19T10:32:53.630Z,3460.00
2022-10-19T10:34:56.916Z,3888.00
2022-10-19T10:35:53.580Z,3704.00
2022-10-19T10:36:53.548Z,2908.00
2022-10-19T10:37:53.516Z,2848.00
2022-10-19T10:38:53.552Z,2940.00
2022-10-19T10:39:53.492Z,3060.00
2022-10-19T10:40:53.470Z,3224.00
2022-10-19T10:41:56.488Z,3328.00
2022-10-19T10:42:56.471Z,3572.00
2022-10-19T10:43:53.446Z,3476.00
2022-10-19T10:44:53.432Z,3512.00
2022-10-19T10:45:53.422Z,3600.00
2022-10-19T10:46:53.481Z,3628.00
2022-10-19T10:47:53.466Z,4564.00
2022-10-19T10:48:53.562Z,4880.00
2022-10-19T10:49:53.371Z,4596.00
2022-10-19T10:50:53.347Z,4852.00
2022-10-19T10:51:53.354Z,4896.00
2022-10-19T10:52:53.345Z,4828.00
2022-10-19T10:53:53.313Z,4812.00
2022-10-19T10:54:53.276Z,4812.00
2022-10-19T10:55:53.267Z,4820.00
2022-10-19T10:56:53.278Z,4804.00
2022-10-19T10:57:53.248Z,4568.00
2022-10-19T10:58:53.227Z,3844.00
2022-10-19T10:59:53.216Z,4272.00
2022-10-19T11:00:53.198Z,3844.00
2022-10-19T11:01:56.298Z,4760.00
2022-10-19T11:02:56.198Z,4424.00
2022-10-19T11:03:53.168Z,4012.00
2022-10-19T11:04:53.149Z,4952.00
2022-10-19T11:05:53.139Z,4980.00
2022-10-19T11:06:53.119Z,4900.00
2022-10-19T11:07:53.149Z,4820.00
2022-10-19T11:08:53.159Z,4812.00
2022-10-19T11:09:53.083Z,4828.00
2022-10-19T11:10:53.072Z,4868.00
2022-10-19T11:11:53.062Z,4944.00
2022-10-19T11:12:53.042Z,4928.00
2022-10-19T11:13:53.032Z,4932.00
2022-10-19T11:14:53.044Z,4916.00
2022-10-19T11:15:53.005Z,4852.00
2022-10-19T11:16:52.993Z,4880.00
2022-10-19T11:17:53.034Z,4948.00
2022-10-19T11:18:52.974Z,4908.00
2022-10-19T11:19:52.955Z,4916.00
2022-10-19T11:20:52.939Z,4880.00
2022-10-19T11:21:55.926Z,4808.00
2022-10-19T11:22:55.958Z,4796.00
2022-10-19T11:23:52.929Z,4784.00
2022-10-19T11:24:52.887Z,4692.00
2022-10-19T11:25:52.878Z,4644.00
2022-10-19T11:26:52.857Z,4640.00
2022-10-19T11:27:52.860Z,4652.00
2022-10-19T11:28:52.858Z,4740.00
2022-10-19T11:29:52.825Z,4868.00
2022-10-19T11:30:52.799Z,4808.00
2022-10-19T11:31:52.800Z,4808.00
2022-10-19T11:32:52.771Z,4880.00
2022-10-19T11:33:52.790Z,4800.00
2022-10-19T11:34:52.790Z,4652.00
2022-10-19T11:35:52.780Z,4588.00
2022-10-19T11:36:52.720Z,4580.00
2022-10-19T11:38:17.491Z,4580.00
2022-10-19T11:38:53.689Z,4532.00
2022-10-19T11:39:52.702Z,4524.00
2022-10-19T11:41:16.499Z,4540.00
2022-10-19T11:41:56.654Z,4556.00
2022-10-19T11:42:55.644Z,4540.00
2022-10-19T11:43:52.614Z,4552.00
2022-10-19T11:44:52.625Z,4584.00
2022-10-19T11:45:52.596Z,4560.00
2022-10-19T11:46:52.574Z,4528.00
2022-10-19T11:47:52.567Z,4492.00
2022-10-19T11:48:54.767Z,4428.00
2022-10-19T11:49:52.566Z,4236.00
2022-10-19T11:50:54.215Z,4344.00
2022-10-19T11:51:53.529Z,4328.00
2022-10-19T11:52:52.500Z,4160.00
2022-10-19T11:53:52.479Z,3148.00
2022-10-19T11:54:52.466Z,3124.00
2022-10-19T11:55:52.459Z,3356.00
2022-10-19T11:57:04.073Z,3988.00
2022-10-19T11:57:53.468Z,3872.00
2022-10-19T11:58:52.409Z,3960.00
2022-10-19T11:59:52.404Z,3852.00
2022-10-19T12:00:52.381Z,3908.00
2022-10-19T12:01:55.432Z,3868.00
2022-10-19T12:02:55.422Z,3840.00
2022-10-19T12:03:52.341Z,3780.00
2022-10-19T12:04:52.323Z,3752.00
2022-10-19T12:05:52.315Z,3760.00
2022-10-19T12:06:52.417Z,3808.00
2022-10-19T12:07:52.297Z,3416.00
2022-10-19T12:08:55.321Z,3836.00
2022-10-19T12:09:52.254Z,3868.00
2022-10-19T12:10:52.244Z,3840.00
2022-10-19T12:11:52.236Z,3852.00
2022-10-19T12:12:52.207Z,3880.00
2022-10-19T12:13:52.226Z,3904.00
2022-10-19T12:14:52.187Z,3956.00
2022-10-19T12:15:52.166Z,3936.00
2022-10-19T12:16:52.159Z,3916.00
2022-10-19T12:17:52.147Z,3904.00
2022-10-19T12:18:52.162Z,3944.00
2022-10-19T12:19:52.119Z,3992.00
2022-10-19T12:20:52.098Z,4004.00
2022-10-19T12:21:55.087Z,3992.00
2022-10-19T12:22:55.068Z,4000.00
2022-10-19T12:23:55.092Z,4044.00
2022-10-19T12:24:52.042Z,4080.00
2022-10-19T12:25:52.029Z,4084.00
2022-10-19T12:26:52.010Z,4060.00
2022-10-19T12:27:52.000Z,4008.00
2022-10-19T12:28:52.032Z,4028.00
2022-10-19T12:29:51.979Z,4072.00
2022-10-19T12:30:51.952Z,4160.00
2022-10-19T12:31:51.942Z,4224.00
2022-10-19T12:32:54.209Z,4224.00
2022-10-19T12:33:51.912Z,4304.00
2022-10-19T12:34:51.925Z,4352.00
2022-10-19T12:35:51.884Z,4404.00
2022-10-19T12:36:51.895Z,4440.00
2022-10-19T12:37:51.857Z,4448.00
2022-10-19T12:38:59.700Z,4388.00
2022-10-19T12:39:52.829Z,4440.00
2022-10-19T12:40:51.810Z,4344.00
2022-10-19T12:41:51.859Z,4280.00
2022-10-19T12:42:54.780Z,3060.00
2022-10-19T12:43:54.820Z,3116.00
2022-10-19T12:44:53.825Z,3136.00